sensor_id;sensor_type;location;lat;lon;timestamp;P1;durP1;ratioP1;P2;durP2;ratioP2
56037;SDS011;41907;47.848;9.000;2022-08-07T00:00:31;8.43;;;5.32;;
56037;SDS011;41907;47.848;9.000;2022-08-07T00:02:56;6.82;;;5.95;;
56037;SDS011;41907;47.848;9.000;2022-08-07T00:05:22;9.77;;;5.53;;
56037;SDS011;41907;47.848;9.000;2022-08-07T00:07:48;7.80;;;5.72;;
56037;SDS011;41907;47.848;9.000;2022-08-07T00:10:14;7.57;;;6.20;;
56037;SDS011;41907;47.848;9.000;2022-08-07T00:12:39;8.38;;;6.50;;
56037;SDS011;41907;47.848;9.000;2022-08-07T00:15:05;8.68;;;6.03;;
56037;SDS011;41907;47.848;9.000;2022-08-07T00:17:31;9.30;;;6.82;;
56037;SDS011;41907;47.848;9.000;2022-08-07T00:19:56;9.75;;;7.20;;
56037;SDS011;41907;47.848;9.000;2022-08-07T00:22:22;9.05;;;6.68;;
56037;SDS011;41907;47.848;9.000;2022-08-07T00:24:47;10.00;;;6.90;;
56037;SDS011;41907;47.848;9.000;2022-08-07T00:27:12;7.63;;;6.82;;
56037;SDS011;41907;47.848;9.000;2022-08-07T00:29:38;6.82;;;5.70;;
56037;SDS011;41907;47.848;9.000;2022-08-07T00:32:04;8.25;;;6.68;;
56037;SDS011;41907;47.848;9.000;2022-08-07T00:34:30;9.13;;;6.97;;
56037;SDS011;41907;47.848;9.000;2022-08-07T00:36:55;9.68;;;6.57;;
56037;SDS011;41907;47.848;9.000;2022-08-07T00:39:21;9.25;;;6.50;;
56037;SDS011;41907;47.848;9.000;2022-08-07T00:41:50;8.90;;;6.63;;
56037;SDS011;41907;47.848;9.000;2022-08-07T00:44:17;7.75;;;6.35;;
56037;SDS011;41907;47.848;9.000;2022-08-07T00:46:42;7.93;;;6.00;;
56037;SDS011;41907;47.848;9.000;2022-08-07T00:49:08;8.95;;;6.45;;
56037;SDS011;41907;47.848;9.000;2022-08-07T00:51:34;8.93;;;7.07;;
56037;SDS011;41907;47.848;9.000;2022-08-07T00:53:59;9.20;;;6.82;;
56037;SDS011;41907;47.848;9.000;2022-08-07T00:56:24;8.40;;;6.70;;
56037;SDS011;41907;47.848;9.000;2022-08-07T00:58:50;11.82;;;8.50;;
56037;SDS011;41907;47.848;9.000;2022-08-07T01:01:16;10.27;;;6.72;;
56037;SDS011;41907;47.848;9.000;2022-08-07T01:03:44;9.48;;;7.45;;
56037;SDS011;41907;47.848;9.000;2022-08-07T01:06:10;8.55;;;6.80;;
56037;SDS011;41907;47.848;9.000;2022-08-07T01:08:35;7.55;;;6.60;;
56037;SDS011;41907;47.848;9.000;2022-08-07T01:11:01;9.43;;;6.80;;
56037;SDS011;41907;47.848;9.000;2022-08-07T01:13:27;8.88;;;6.55;;
56037;SDS011;41907;47.848;9.000;2022-08-07T01:15:52;9.07;;;6.35;;
56037;SDS011;41907;47.848;9.000;2022-08-07T01:18:21;9.25;;;6.38;;
56037;SDS011;41907;47.848;9.000;2022-08-07T01:20:49;7.90;;;6.32;;
56037;SDS011;41907;47.848;9.000;2022-08-07T01:23:21;15.30;;;7.50;;
56037;SDS011;41907;47.848;9.000;2022-08-07T01:25:47;8.05;;;6.63;;
56037;SDS011;41907;47.848;9.000;2022-08-07T01:28:13;11.20;;;7.07;;
56037;SDS011;41907;47.848;9.000;2022-08-07T01:30:38;9.07;;;6.65;;
56037;SDS011;41907;47.848;9.000;2022-08-07T01:33:05;12.93;;;7.60;;
56037;SDS011;41907;47.848;9.000;2022-08-07T01:35:30;10.98;;;7.40;;
56037;SDS011;41907;47.848;9.000;2022-08-07T01:37:55;9.45;;;7.22;;
56037;SDS011;41907;47.848;9.000;2022-08-07T01:40:21;10.07;;;6.78;;
56037;SDS011;41907;47.848;9.000;2022-08-07T01:42:48;9.93;;;6.82;;
56037;SDS011;41907;47.848;9.000;2022-08-07T01:45:14;9.25;;;7.03;;
56037;SDS011;41907;47.848;9.000;2022-08-07T01:47:40;9.18;;;6.47;;
56037;SDS011;41907;47.848;9.000;2022-08-07T01:50:05;12.02;;;6.80;;
56037;SDS011;41907;47.848;9.000;2022-08-07T01:52:31;10.80;;;6.80;;
56037;SDS011;41907;47.848;9.000;2022-08-07T01:54:59;10.90;;;7.20;;
56037;SDS011;41907;47.848;9.000;2022-08-07T01:57:27;11.23;;;7.15;;
56037;SDS011;41907;47.848;9.000;2022-08-07T02:00:03;11.48;;;7.82;;
56037;SDS011;41907;47.848;9.000;2022-08-07T02:02:40;12.45;;;6.88;;
56037;SDS011;41907;47.848;9.000;2022-08-07T02:05:08;13.15;;;7.10;;
56037;SDS011;41907;47.848;9.000;2022-08-07T02:07:38;10.05;;;7.60;;
56037;SDS011;41907;47.848;9.000;2022-08-07T02:10:15;9.98;;;7.70;;
56037;SDS011;41907;47.848;9.000;2022-08-07T02:12:44;10.68;;;7.43;;
56037;SDS011;41907;47.848;9.000;2022-08-07T02:15:11;10.27;;;7.20;;
56037;SDS011;41907;47.848;9.000;2022-08-07T02:17:38;12.38;;;7.95;;
56037;SDS011;41907;47.848;9.000;2022-08-07T02:20:06;12.52;;;7.93;;
56037;SDS011;41907;47.848;9.000;2022-08-07T02:22:35;13.43;;;7.95;;
56037;SDS011;41907;47.848;9.000;2022-08-07T02:25:02;12.90;;;8.70;;
56037;SDS011;41907;47.848;9.000;2022-08-07T02:27:30;12.82;;;8.82;;
56037;SDS011;41907;47.848;9.000;2022-08-07T02:29:58;12.00;;;8.55;;
56037;SDS011;41907;47.848;9.000;2022-08-07T02:32:25;13.38;;;8.77;;
56037;SDS011;41907;47.848;9.000;2022-08-07T02:34:51;12.93;;;8.63;;
56037;SDS011;41907;47.848;9.000;2022-08-07T02:37:18;11.15;;;8.20;;
56037;SDS011;41907;47.848;9.000;2022-08-07T02:39:45;10.80;;;8.70;;
56037;SDS011;41907;47.848;9.000;2022-08-07T02:42:12;12.90;;;9.27;;
56037;SDS011;41907;47.848;9.000;2022-08-07T02:44:39;11.57;;;7.80;;
56037;SDS011;41907;47.848;9.000;2022-08-07T02:47:05;14.35;;;7.80;;
56037;SDS011;41907;47.848;9.000;2022-08-07T02:49:32;11.93;;;8.45;;
56037;SDS011;41907;47.848;9.000;2022-08-07T02:51:58;11.73;;;8.40;;
56037;SDS011;41907;47.848;9.000;2022-08-07T02:54:28;10.98;;;8.73;;
56037;SDS011;41907;47.848;9.000;2022-08-07T02:56:57;12.23;;;8.85;;
56037;SDS011;41907;47.848;9.000;2022-08-07T02:59:25;15.60;;;8.15;;
56037;SDS011;41907;47.848;9.000;2022-08-07T03:01:52;12.93;;;7.95;;
56037;SDS011;41907;47.848;9.000;2022-08-07T03:04:19;9.73;;;7.05;;
56037;SDS011;41907;47.848;9.000;2022-08-07T03:06:47;11.95;;;7.72;;
56037;SDS011;41907;47.848;9.000;2022-08-07T03:09:14;9.77;;;7.63;;
56037;SDS011;41907;47.848;9.000;2022-08-07T03:11:42;10.93;;;7.60;;
56037;SDS011;41907;47.848;9.000;2022-08-07T03:14:08;12.65;;;7.53;;
56037;SDS011;41907;47.848;9.000;2022-08-07T03:16:33;11.23;;;7.80;;
56037;SDS011;41907;47.848;9.000;2022-08-07T03:19:00;10.80;;;7.20;;
56037;SDS011;41907;47.848;9.000;2022-08-07T03:21:26;11.90;;;7.10;;
56037;SDS011;41907;47.848;9.000;2022-08-07T03:23:55;9.40;;;7.13;;
56037;SDS011;41907;47.848;9.000;2022-08-07T03:26:26;14.82;;;9.00;;
56037;SDS011;41907;47.848;9.000;2022-08-07T03:28:54;10.68;;;7.20;;
56037;SDS011;41907;47.848;9.000;2022-08-07T03:31:20;13.20;;;8.38;;
56037;SDS011;41907;47.848;9.000;2022-08-07T03:33:48;9.95;;;6.95;;
56037;SDS011;41907;47.848;9.000;2022-08-07T03:36:17;13.50;;;8.77;;
56037;SDS011;41907;47.848;9.000;2022-08-07T03:38:45;9.95;;;7.90;;
56037;SDS011;41907;47.848;9.000;2022-08-07T03:41:12;9.77;;;7.05;;
56037;SDS011;41907;47.848;9.000;2022-08-07T03:43:39;9.90;;;7.38;;
56037;SDS011;41907;47.848;9.000;2022-08-07T03:46:05;11.25;;;8.00;;
56037;SDS011;41907;47.848;9.000;2022-08-07T03:48:32;10.23;;;7.35;;
56037;SDS011;41907;47.848;9.000;2022-08-07T03:50:58;11.15;;;7.78;;
56037;SDS011;41907;47.848;9.000;2022-08-07T03:53:25;9.98;;;7.10;;
56037;SDS011;41907;47.848;9.000;2022-08-07T03:55:51;11.85;;;7.55;;
56037;SDS011;41907;47.848;9.000;2022-08-07T03:58:17;10.25;;;7.60;;
56037;SDS011;41907;47.848;9.000;2022-08-07T04:00:45;12.50;;;6.78;;
56037;SDS011;41907;47.848;9.000;2022-08-07T04:03:13;10.18;;;7.25;;
56037;SDS011;41907;47.848;9.000;2022-08-07T04:05:38;11.77;;;7.40;;
56037;SDS011;41907;47.848;9.000;2022-08-07T04:08:04;12.63;;;8.50;;
56037;SDS011;41907;47.848;9.000;2022-08-07T04:10:29;9.98;;;7.93;;
56037;SDS011;41907;47.848;9.000;2022-08-07T04:12:56;13.02;;;8.55;;
56037;SDS011;41907;47.848;9.000;2022-08-07T04:15:22;11.35;;;7.63;;
56037;SDS011;41907;47.848;9.000;2022-08-07T04:17:47;13.82;;;8.15;;
56037;SDS011;41907;47.848;9.000;2022-08-07T04:20:13;10.63;;;7.45;;
56037;SDS011;41907;47.848;9.000;2022-08-07T04:22:39;11.18;;;7.20;;
56037;SDS011;41907;47.848;9.000;2022-08-07T04:25:05;12.55;;;7.50;;
56037;SDS011;41907;47.848;9.000;2022-08-07T04:27:32;10.85;;;6.70;;
56037;SDS011;41907;47.848;9.000;2022-08-07T04:29:58;9.27;;;6.85;;
56037;SDS011;41907;47.848;9.000;2022-08-07T04:32:24;12.32;;;8.02;;
56037;SDS011;41907;47.848;9.000;2022-08-07T04:34:49;12.18;;;8.23;;
56037;SDS011;41907;47.848;9.000;2022-08-07T04:37:16;11.20;;;7.68;;
56037;SDS011;41907;47.848;9.000;2022-08-07T04:39:41;10.70;;;7.40;;
56037;SDS011;41907;47.848;9.000;2022-08-07T04:42:07;12.43;;;7.93;;
56037;SDS011;41907;47.848;9.000;2022-08-07T04:44:32;11.07;;;7.70;;
56037;SDS011;41907;47.848;9.000;2022-08-07T04:47:13;11.20;;;7.72;;
56037;SDS011;41907;47.848;9.000;2022-08-07T04:49:51;15.50;;;8.68;;
56037;SDS011;41907;47.848;9.000;2022-08-07T04:52:42;12.63;;;7.60;;
56037;SDS011;41907;47.848;9.000;2022-08-07T04:58:07;12.90;;;7.95;;
56037;SDS011;41907;47.848;9.000;2022-08-07T05:00:44;10.70;;;7.40;;
56037;SDS011;41907;47.848;9.000;2022-08-07T05:05:42;11.73;;;7.28;;
56037;SDS011;41907;47.848;9.000;2022-08-07T05:10:51;11.48;;;7.43;;
56037;SDS011;41907;47.848;9.000;2022-08-07T05:13:26;12.77;;;7.50;;
56037;SDS011;41907;47.848;9.000;2022-08-07T05:15:55;11.80;;;7.10;;
56037;SDS011;41907;47.848;9.000;2022-08-07T05:18:30;12.57;;;6.90;;
56037;SDS011;41907;47.848;9.000;2022-08-07T05:20:59;11.15;;;7.38;;
56037;SDS011;41907;47.848;9.000;2022-08-07T05:25:55;10.75;;;7.50;;
56037;SDS011;41907;47.848;9.000;2022-08-07T05:28:21;11.18;;;8.13;;
56037;SDS011;41907;47.848;9.000;2022-08-07T05:30:48;11.77;;;7.53;;
56037;SDS011;41907;47.848;9.000;2022-08-07T05:33:15;12.07;;;7.68;;
56037;SDS011;41907;47.848;9.000;2022-08-07T05:35:41;10.82;;;7.55;;
56037;SDS011;41907;47.848;9.000;2022-08-07T05:38:08;9.82;;;7.10;;
56037;SDS011;41907;47.848;9.000;2022-08-07T05:40:35;10.18;;;6.78;;
56037;SDS011;41907;47.848;9.000;2022-08-07T05:43:02;11.35;;;8.02;;
56037;SDS011;41907;47.848;9.000;2022-08-07T05:45:27;11.13;;;8.20;;
56037;SDS011;41907;47.848;9.000;2022-08-07T05:47:54;12.48;;;7.80;;
56037;SDS011;41907;47.848;9.000;2022-08-07T05:50:20;11.15;;;7.63;;
56037;SDS011;41907;47.848;9.000;2022-08-07T05:52:46;12.65;;;7.30;;
56037;SDS011;41907;47.848;9.000;2022-08-07T05:55:11;10.73;;;7.13;;
56037;SDS011;41907;47.848;9.000;2022-08-07T05:57:38;12.02;;;7.63;;
56037;SDS011;41907;47.848;9.000;2022-08-07T06:00:05;13.13;;;7.63;;
56037;SDS011;41907;47.848;9.000;2022-08-07T06:02:32;12.02;;;7.75;;
56037;SDS011;41907;47.848;9.000;2022-08-07T06:05:07;14.38;;;7.70;;
56037;SDS011;41907;47.848;9.000;2022-08-07T06:07:35;12.88;;;7.50;;
56037;SDS011;41907;47.848;9.000;2022-08-07T06:10:01;12.10;;;7.93;;
56037;SDS011;41907;47.848;9.000;2022-08-07T06:12:28;9.35;;;6.45;;
56037;SDS011;41907;47.848;9.000;2022-08-07T06:14:54;10.10;;;6.72;;
56037;SDS011;41907;47.848;9.000;2022-08-07T06:17:22;10.98;;;7.70;;
56037;SDS011;41907;47.848;9.000;2022-08-07T06:19:48;10.23;;;6.70;;
56037;SDS011;41907;47.848;9.000;2022-08-07T06:22:15;10.70;;;6.82;;
56037;SDS011;41907;47.848;9.000;2022-08-07T06:24:40;8.55;;;6.78;;
56037;SDS011;41907;47.848;9.000;2022-08-07T06:27:06;9.52;;;5.90;;
56037;SDS011;41907;47.848;9.000;2022-08-07T06:29:32;10.23;;;6.80;;
56037;SDS011;41907;47.848;9.000;2022-08-07T06:32:00;8.85;;;5.75;;
56037;SDS011;41907;47.848;9.000;2022-08-07T06:34:26;11.68;;;6.78;;
56037;SDS011;41907;47.848;9.000;2022-08-07T06:36:52;11.82;;;6.05;;
56037;SDS011;41907;47.848;9.000;2022-08-07T06:39:21;7.88;;;6.10;;
56037;SDS011;41907;47.848;9.000;2022-08-07T06:41:47;7.43;;;6.05;;
56037;SDS011;41907;47.848;9.000;2022-08-07T06:44:18;8.15;;;6.00;;
56037;SDS011;41907;47.848;9.000;2022-08-07T06:46:45;7.85;;;6.30;;
56037;SDS011;41907;47.848;9.000;2022-08-07T06:49:11;8.98;;;5.75;;
56037;SDS011;41907;47.848;9.000;2022-08-07T06:51:36;7.10;;;5.45;;
56037;SDS011;41907;47.848;9.000;2022-08-07T06:54:03;6.53;;;5.40;;
56037;SDS011;41907;47.848;9.000;2022-08-07T06:56:31;7.22;;;5.95;;
56037;SDS011;41907;47.848;9.000;2022-08-07T06:59:06;7.68;;;6.13;;
56037;SDS011;41907;47.848;9.000;2022-08-07T07:01:33;22.27;;;5.55;;
56037;SDS011;41907;47.848;9.000;2022-08-07T07:04:01;6.35;;;4.93;;
56037;SDS011;41907;47.848;9.000;2022-08-07T07:06:29;7.85;;;5.22;;
56037;SDS011;41907;47.848;9.000;2022-08-07T07:09:00;6.93;;;5.22;;
56037;SDS011;41907;47.848;9.000;2022-08-07T07:11:40;5.22;;;4.63;;
56037;SDS011;41907;47.848;9.000;2022-08-07T07:14:13;5.25;;;4.53;;
56037;SDS011;41907;47.848;9.000;2022-08-07T07:16:40;9.32;;;4.57;;
56037;SDS011;41907;47.848;9.000;2022-08-07T07:19:07;5.30;;;4.45;;
56037;SDS011;41907;47.848;9.000;2022-08-07T07:21:37;5.25;;;4.38;;
56037;SDS011;41907;47.848;9.000;2022-08-07T07:24:06;4.72;;;4.18;;
56037;SDS011;41907;47.848;9.000;2022-08-07T07:26:34;4.38;;;3.95;;
56037;SDS011;41907;47.848;9.000;2022-08-07T07:29:06;4.30;;;3.90;;
56037;SDS011;41907;47.848;9.000;2022-08-07T07:31:45;8.35;;;4.10;;
56037;SDS011;41907;47.848;9.000;2022-08-07T07:34:18;4.28;;;3.88;;
56037;SDS011;41907;47.848;9.000;2022-08-07T07:36:49;4.13;;;3.40;;
56037;SDS011;41907;47.848;9.000;2022-08-07T07:39:16;5.65;;;3.80;;
56037;SDS011;41907;47.848;9.000;2022-08-07T07:41:44;4.60;;;3.67;;
56037;SDS011;41907;47.848;9.000;2022-08-07T07:44:13;3.95;;;3.47;;
56037;SDS011;41907;47.848;9.000;2022-08-07T07:46:42;4.93;;;3.38;;
56037;SDS011;41907;47.848;9.000;2022-08-07T07:49:08;5.03;;;3.58;;
56037;SDS011;41907;47.848;9.000;2022-08-07T07:51:38;5.18;;;3.72;;
56037;SDS011;41907;47.848;9.000;2022-08-07T07:54:06;3.80;;;3.50;;
56037;SDS011;41907;47.848;9.000;2022-08-07T07:56:33;3.33;;;3.03;;
56037;SDS011;41907;47.848;9.000;2022-08-07T07:59:00;4.93;;;3.58;;
56037;SDS011;41907;47.848;9.000;2022-08-07T08:01:28;4.03;;;3.47;;
56037;SDS011;41907;47.848;9.000;2022-08-07T08:03:56;3.90;;;3.03;;
56037;SDS011;41907;47.848;9.000;2022-08-07T08:06:24;4.95;;;3.42;;
56037;SDS011;41907;47.848;9.000;2022-08-07T08:08:50;4.32;;;3.55;;
56037;SDS011;41907;47.848;9.000;2022-08-07T08:11:16;3.80;;;3.03;;
56037;SDS011;41907;47.848;9.000;2022-08-07T08:13:44;4.55;;;2.78;;
56037;SDS011;41907;47.848;9.000;2022-08-07T08:16:13;3.80;;;2.70;;
56037;SDS011;41907;47.848;9.000;2022-08-07T08:18:41;3.08;;;2.50;;
56037;SDS011;41907;47.848;9.000;2022-08-07T08:21:07;3.85;;;2.83;;
56037;SDS011;41907;47.848;9.000;2022-08-07T08:23:54;3.83;;;2.90;;
56037;SDS011;41907;47.848;9.000;2022-08-07T08:26:37;3.40;;;2.90;;
56037;SDS011;41907;47.848;9.000;2022-08-07T08:29:23;3.65;;;2.95;;
56037;SDS011;41907;47.848;9.000;2022-08-07T08:31:51;2.90;;;2.58;;
56037;SDS011;41907;47.848;9.000;2022-08-07T08:34:17;3.10;;;2.80;;
56037;SDS011;41907;47.848;9.000;2022-08-07T08:36:46;4.78;;;2.80;;
56037;SDS011;41907;47.848;9.000;2022-08-07T08:39:13;3.50;;;3.00;;
56037;SDS011;41907;47.848;9.000;2022-08-07T08:41:46;2.63;;;2.42;;
56037;SDS011;41907;47.848;9.000;2022-08-07T08:52:36;3.05;;;2.78;;
56037;SDS011;41907;47.848;9.000;2022-08-07T08:55:24;3.08;;;2.70;;
56037;SDS011;41907;47.848;9.000;2022-08-07T09:00:35;2.90;;;2.42;;
56037;SDS011;41907;47.848;9.000;2022-08-07T09:03:14;3.55;;;2.60;;
56037;SDS011;41907;47.848;9.000;2022-08-07T09:08:40;3.88;;;3.17;;
56037;SDS011;41907;47.848;9.000;2022-08-07T09:22:39;2.53;;;2.30;;
56037;SDS011;41907;47.848;9.000;2022-08-07T09:25:12;4.43;;;2.47;;
56037;SDS011;41907;47.848;9.000;2022-08-07T09:27:54;3.20;;;2.40;;
56037;SDS011;41907;47.848;9.000;2022-08-07T09:30:26;2.22;;;2.03;;
56037;SDS011;41907;47.848;9.000;2022-08-07T09:33:38;3.05;;;2.00;;
56037;SDS011;41907;47.848;9.000;2022-08-07T09:36:21;1.90;;;1.80;;
56037;SDS011;41907;47.848;9.000;2022-08-07T09:38:58;2.25;;;2.05;;
56037;SDS011;41907;47.848;9.000;2022-08-07T09:44:12;1.90;;;1.80;;
56037;SDS011;41907;47.848;9.000;2022-08-07T09:46:51;4.18;;;1.70;;
56037;SDS011;41907;47.848;9.000;2022-08-07T09:51:54;2.08;;;1.98;;
56037;SDS011;41907;47.848;9.000;2022-08-07T09:54:39;2.05;;;1.65;;
56037;SDS011;41907;47.848;9.000;2022-08-07T09:57:12;1.73;;;1.63;;
56037;SDS011;41907;47.848;9.000;2022-08-07T10:37:35;2.55;;;1.38;;
56037;SDS011;41907;47.848;9.000;2022-08-07T10:40:10;1.52;;;1.42;;
56037;SDS011;41907;47.848;9.000;2022-08-07T10:43:25;2.10;;;1.40;;
56037;SDS011;41907;47.848;9.000;2022-08-07T10:45:45;1.23;;;1.13;;
56037;SDS011;41907;47.848;9.000;2022-08-07T10:50:52;1.30;;;1.20;;
56037;SDS011;41907;47.848;9.000;2022-08-07T11:03:47;1.05;;;0.95;;
56037;SDS011;41907;47.848;9.000;2022-08-07T11:06:18;2.25;;;1.23;;
56037;SDS011;41907;47.848;9.000;2022-08-07T11:09:33;2.78;;;1.10;;
56037;SDS011;41907;47.848;9.000;2022-08-07T11:12:10;1.00;;;0.80;;
56037;SDS011;41907;47.848;9.000;2022-08-07T11:14:42;1.13;;;1.02;;
56037;SDS011;41907;47.848;9.000;2022-08-07T11:17:24;1.30;;;0.90;;
56037;SDS011;41907;47.848;9.000;2022-08-07T11:19:57;1.10;;;1.10;;
56037;SDS011;41907;47.848;9.000;2022-08-07T11:22:33;1.55;;;1.05;;
56037;SDS011;41907;47.848;9.000;2022-08-07T11:30:27;1.00;;;1.00;;
56037;SDS011;41907;47.848;9.000;2022-08-07T11:35:55;1.30;;;1.20;;
56037;SDS011;41907;47.848;9.000;2022-08-07T11:38:26;2.55;;;1.05;;
56037;SDS011;41907;47.848;9.000;2022-08-07T11:41:21;1.20;;;1.10;;
56037;SDS011;41907;47.848;9.000;2022-08-07T11:44:08;1.38;;;1.27;;
56037;SDS011;41907;47.848;9.000;2022-08-07T12:05:24;1.00;;;1.00;;
56037;SDS011;41907;47.848;9.000;2022-08-07T12:07:56;1.52;;;1.45;;
56037;SDS011;41907;47.848;9.000;2022-08-07T12:10:39;1.00;;;0.95;;
56037;SDS011;41907;47.848;9.000;2022-08-07T12:15:49;0.90;;;0.90;;
56037;SDS011;41907;47.848;9.000;2022-08-07T12:20:51;1.27;;;1.17;;
56037;SDS011;41907;47.848;9.000;2022-08-07T12:26:08;0.80;;;0.80;;
56037;SDS011;41907;47.848;9.000;2022-08-07T12:28:46;1.75;;;1.25;;
56037;SDS011;41907;47.848;9.000;2022-08-07T12:31:18;1.00;;;1.00;;
56037;SDS011;41907;47.848;9.000;2022-08-07T12:34:06;1.80;;;1.00;;
56037;SDS011;41907;47.848;9.000;2022-08-07T12:36:32;2.05;;;1.05;;
56037;SDS011;41907;47.848;9.000;2022-08-07T12:39:01;1.10;;;0.90;;
56037;SDS011;41907;47.848;9.000;2022-08-07T12:41:28;1.00;;;1.00;;
56037;SDS011;41907;47.848;9.000;2022-08-07T12:43:55;0.80;;;0.80;;
56037;SDS011;41907;47.848;9.000;2022-08-07T12:50:21;1.10;;;1.00;;
56037;SDS011;41907;47.848;9.000;2022-08-07T12:52:45;1.13;;;1.02;;
56037;SDS011;41907;47.848;9.000;2022-08-07T12:55:36;1.00;;;0.75;;
56037;SDS011;41907;47.848;9.000;2022-08-07T12:58:09;1.00;;;1.00;;
56037;SDS011;41907;47.848;9.000;2022-08-07T13:00:46;0.90;;;0.90;;
56037;SDS011;41907;47.848;9.000;2022-08-07T13:03:43;0.70;;;0.70;;
56037;SDS011;41907;47.848;9.000;2022-08-07T13:06:20;1.15;;;1.05;;
56037;SDS011;41907;47.848;9.000;2022-08-07T13:08:53;1.00;;;1.00;;
56037;SDS011;41907;47.848;9.000;2022-08-07T13:26:00;2.05;;;1.10;;
56037;SDS011;41907;47.848;9.000;2022-08-07T13:28:11;1.00;;;0.77;;
56037;SDS011;41907;47.848;9.000;2022-08-07T13:30:42;0.85;;;0.85;;
56037;SDS011;41907;47.848;9.000;2022-08-07T13:38:15;2.78;;;0.98;;
56037;SDS011;41907;47.848;9.000;2022-08-07T13:43:48;0.88;;;0.88;;
56037;SDS011;41907;47.848;9.000;2022-08-07T13:46:15;1.17;;;0.88;;
56037;SDS011;41907;47.848;9.000;2022-08-07T13:48:43;1.05;;;0.90;;
56037;SDS011;41907;47.848;9.000;2022-08-07T13:51:22;0.68;;;0.60;;
56037;SDS011;41907;47.848;9.000;2022-08-07T13:54:03;1.02;;;0.80;;
56037;SDS011;41907;47.848;9.000;2022-08-07T13:56:32;1.45;;;1.00;;
56037;SDS011;41907;47.848;9.000;2022-08-07T13:59:00;0.70;;;0.70;;
56037;SDS011;41907;47.848;9.000;2022-08-07T14:01:27;0.90;;;0.90;;
56037;SDS011;41907;47.848;9.000;2022-08-07T14:03:55;2.03;;;0.85;;
56037;SDS011;41907;47.848;9.000;2022-08-07T14:06:21;0.90;;;0.90;;
56037;SDS011;41907;47.848;9.000;2022-08-07T14:08:55;1.10;;;0.98;;
56037;SDS011;41907;47.848;9.000;2022-08-07T14:11:22;4.32;;;1.50;;
56037;SDS011;41907;47.848;9.000;2022-08-07T14:13:53;2.92;;;1.00;;
56037;SDS011;41907;47.848;9.000;2022-08-07T14:16:24;2.50;;;1.00;;
56037;SDS011;41907;47.848;9.000;2022-08-07T14:18:55;1.15;;;1.05;;
56037;SDS011;41907;47.848;9.000;2022-08-07T14:21:25;0.90;;;0.90;;
56037;SDS011;41907;47.848;9.000;2022-08-07T14:24:03;0.80;;;0.80;;
56037;SDS011;41907;47.848;9.000;2022-08-07T14:26:42;0.82;;;0.82;;
56037;SDS011;41907;47.848;9.000;2022-08-07T14:29:15;1.13;;;1.00;;
56037;SDS011;41907;47.848;9.000;2022-08-07T14:31:43;0.90;;;0.90;;
56037;SDS011;41907;47.848;9.000;2022-08-07T14:34:11;1.05;;;1.00;;
56037;SDS011;41907;47.848;9.000;2022-08-07T14:36:38;1.75;;;1.27;;
56037;SDS011;41907;47.848;9.000;2022-08-07T14:39:04;1.00;;;1.00;;
56037;SDS011;41907;47.848;9.000;2022-08-07T14:41:31;2.10;;;0.90;;
56037;SDS011;41907;47.848;9.000;2022-08-07T14:43:58;1.08;;;0.98;;
56037;SDS011;41907;47.848;9.000;2022-08-07T14:46:25;1.02;;;0.93;;
56037;SDS011;41907;47.848;9.000;2022-08-07T14:48:53;0.82;;;0.82;;
56037;SDS011;41907;47.848;9.000;2022-08-07T14:51:21;0.88;;;0.88;;
56037;SDS011;41907;47.848;9.000;2022-08-07T14:53:52;1.58;;;1.20;;
56037;SDS011;41907;47.848;9.000;2022-08-07T14:56:22;1.42;;;1.10;;
56037;SDS011;41907;47.848;9.000;2022-08-07T14:58:51;1.38;;;1.27;;
56037;SDS011;41907;47.848;9.000;2022-08-07T15:01:18;1.48;;;1.17;;
56037;SDS011;41907;47.848;9.000;2022-08-07T15:03:47;1.55;;;1.30;;
56037;SDS011;41907;47.848;9.000;2022-08-07T15:06:13;0.93;;;0.93;;
56037;SDS011;41907;47.848;9.000;2022-08-07T15:08:47;1.25;;;1.15;;
56037;SDS011;41907;47.848;9.000;2022-08-07T15:11:18;1.20;;;1.10;;
56037;SDS011;41907;47.848;9.000;2022-08-07T15:13:59;1.65;;;0.98;;
56037;SDS011;41907;47.848;9.000;2022-08-07T15:16:32;1.85;;;1.75;;
56037;SDS011;41907;47.848;9.000;2022-08-07T15:19:01;1.20;;;1.10;;
56037;SDS011;41907;47.848;9.000;2022-08-07T15:21:32;1.00;;;1.00;;
56037;SDS011;41907;47.848;9.000;2022-08-07T15:24:02;1.15;;;1.10;;
56037;SDS011;41907;47.848;9.000;2022-08-07T15:26:40;1.15;;;1.08;;
56037;SDS011;41907;47.848;9.000;2022-08-07T15:29:10;1.10;;;1.00;;
56037;SDS011;41907;47.848;9.000;2022-08-07T15:31:39;2.53;;;1.17;;
56037;SDS011;41907;47.848;9.000;2022-08-07T15:34:06;1.27;;;1.17;;
56037;SDS011;41907;47.848;9.000;2022-08-07T15:36:33;2.25;;;1.10;;
56037;SDS011;41907;47.848;9.000;2022-08-07T15:39:04;1.40;;;1.20;;
56037;SDS011;41907;47.848;9.000;2022-08-07T15:41:35;1.70;;;1.15;;
56037;SDS011;41907;47.848;9.000;2022-08-07T15:44:04;1.85;;;1.30;;
56037;SDS011;41907;47.848;9.000;2022-08-07T15:46:34;2.42;;;2.15;;
56037;SDS011;41907;47.848;9.000;2022-08-07T15:49:01;1.98;;;1.50;;
56037;SDS011;41907;47.848;9.000;2022-08-07T15:51:29;1.48;;;1.38;;
56037;SDS011;41907;47.848;9.000;2022-08-07T15:53:56;1.40;;;1.30;;
56037;SDS011;41907;47.848;9.000;2022-08-07T15:56:34;0.90;;;0.90;;
56037;SDS011;41907;47.848;9.000;2022-08-07T15:59:04;1.20;;;1.10;;
56037;SDS011;41907;47.848;9.000;2022-08-07T16:01:43;0.85;;;0.85;;
56037;SDS011;41907;47.848;9.000;2022-08-07T16:04:11;1.30;;;1.20;;
56037;SDS011;41907;47.848;9.000;2022-08-07T16:06:40;1.10;;;1.00;;
56037;SDS011;41907;47.848;9.000;2022-08-07T16:09:13;0.70;;;0.70;;
56037;SDS011;41907;47.848;9.000;2022-08-07T16:14:56;1.45;;;1.10;;
56037;SDS011;41907;47.848;9.000;2022-08-07T16:20:25;2.35;;;1.15;;
56037;SDS011;41907;47.848;9.000;2022-08-07T16:23:06;3.33;;;1.20;;
56037;SDS011;41907;47.848;9.000;2022-08-07T16:25:52;1.10;;;1.10;;
56037;SDS011;41907;47.848;9.000;2022-08-07T16:28:41;1.33;;;1.23;;
56037;SDS011;41907;47.848;9.000;2022-08-07T16:31:40;1.38;;;1.08;;
56037;SDS011;41907;47.848;9.000;2022-08-07T16:34:07;1.35;;;1.25;;
56037;SDS011;41907;47.848;9.000;2022-08-07T16:50:53;1.52;;;1.40;;
56037;SDS011;41907;47.848;9.000;2022-08-07T16:53:32;1.40;;;1.30;;
56037;SDS011;41907;47.848;9.000;2022-08-07T17:01:35;1.48;;;1.30;;
56037;SDS011;41907;47.848;9.000;2022-08-07T17:09:38;1.40;;;1.30;;
56037;SDS011;41907;47.848;9.000;2022-08-07T17:12:13;1.55;;;1.23;;
56037;SDS011;41907;47.848;9.000;2022-08-07T17:14:47;1.63;;;1.08;;
56037;SDS011;41907;47.848;9.000;2022-08-07T17:20:28;1.27;;;1.17;;
56037;SDS011;41907;47.848;9.000;2022-08-07T17:22:56;1.40;;;1.30;;
56037;SDS011;41907;47.848;9.000;2022-08-07T17:25:36;1.25;;;1.15;;
56037;SDS011;41907;47.848;9.000;2022-08-07T17:28:16;1.52;;;1.15;;
56037;SDS011;41907;47.848;9.000;2022-08-07T17:30:51;1.55;;;1.17;;
56037;SDS011;41907;47.848;9.000;2022-08-07T17:33:45;2.03;;;1.23;;
56037;SDS011;41907;47.848;9.000;2022-08-07T17:36:18;1.27;;;1.17;;
56037;SDS011;41907;47.848;9.000;2022-08-07T17:41:41;1.10;;;1.10;;
56037;SDS011;41907;47.848;9.000;2022-08-07T17:44:21;1.45;;;1.23;;
56037;SDS011;41907;47.848;9.000;2022-08-07T17:49:33;1.27;;;1.17;;
56037;SDS011;41907;47.848;9.000;2022-08-07T17:55:07;3.38;;;1.40;;
56037;SDS011;41907;47.848;9.000;2022-08-07T18:00:15;1.23;;;1.13;;
56037;SDS011;41907;47.848;9.000;2022-08-07T18:02:42;2.53;;;1.27;;
56037;SDS011;41907;47.848;9.000;2022-08-07T18:05:18;0.90;;;0.80;;
56037;SDS011;41907;47.848;9.000;2022-08-07T18:08:02;1.25;;;1.10;;
56037;SDS011;41907;47.848;9.000;2022-08-07T18:10:42;0.75;;;0.75;;
56037;SDS011;41907;47.848;9.000;2022-08-07T18:13:19;1.35;;;1.20;;
56037;SDS011;41907;47.848;9.000;2022-08-07T18:18:44;1.25;;;1.10;;
56037;SDS011;41907;47.848;9.000;2022-08-07T18:23:56;1.45;;;1.35;;
56037;SDS011;41907;47.848;9.000;2022-08-07T18:35:13;1.52;;;1.40;;